createdAt,value
2023-03-23T15:59:10.941Z,5.10
2023-03-23T16:01:41.175Z,10.82
2023-03-23T16:04:13.496Z,5.30
2023-03-23T16:06:41.552Z,10.80
2023-03-23T16:09:13.400Z,5.90
2023-03-23T16:11:40.749Z,7.00
2023-03-23T16:14:08.351Z,6.25
2023-03-23T16:16:50.274Z,4.93
2023-03-23T16:19:20.408Z,6.97
2023-03-23T16:21:47.887Z,5.07
2023-03-23T16:24:15.159Z,6.32
2023-03-23T16:26:42.481Z,7.25
2023-03-23T16:29:26.209Z,6.53
2023-03-23T16:31:56.080Z,5.63
2023-03-23T16:34:23.809Z,6.60
2023-03-23T16:36:51.154Z,10.13
2023-03-23T16:39:19.230Z,8.07
2023-03-23T16:41:46.411Z,7.75
2023-03-23T16:44:13.639Z,11.63
2023-03-23T16:46:41.200Z,15.30
2023-03-23T16:49:08.515Z,12.90
2023-03-23T16:51:35.958Z,14.20
2023-03-23T16:54:03.299Z,6.88
2023-03-23T16:56:30.930Z,11.98
2023-03-23T16:58:58.318Z,9.90
2023-03-23T17:01:25.812Z,13.52
2023-03-23T17:03:54.395Z,10.35
2023-03-23T17:06:21.818Z,14.60
2023-03-23T17:08:49.069Z,8.40
2023-03-23T17:11:16.636Z,9.43
2023-03-23T17:13:43.970Z,15.45
2023-03-23T17:16:11.371Z,16.85
2023-03-23T17:18:38.662Z,10.77
2023-03-23T17:21:06.807Z,18.00
2023-03-23T17:23:34.401Z,21.52
2023-03-23T17:26:01.799Z,13.50
2023-03-23T17:28:29.115Z,12.50
2023-03-23T17:30:56.535Z,13.00
2023-03-23T17:33:23.839Z,12.70
2023-03-23T17:35:52.116Z,18.42
2023-03-23T17:38:20.188Z,14.15
2023-03-23T17:40:47.609Z,13.80
2023-03-23T17:43:14.822Z,19.90
2023-03-23T17:45:44.360Z,21.08
2023-03-23T17:48:13.202Z,21.67
2023-03-23T17:50:41.215Z,19.58
2023-03-23T17:53:08.469Z,19.90
2023-03-23T17:55:36.229Z,12.27
2023-03-23T17:58:03.482Z,12.23
2023-03-23T18:00:31.064Z,14.05
2023-03-23T18:02:58.455Z,12.70
2023-03-23T18:05:27.930Z,12.48
2023-03-23T18:07:55.344Z,13.95
2023-03-23T18:10:22.635Z,17.10
2023-03-23T18:12:51.589Z,16.88
2023-03-23T18:15:19.175Z,12.02
2023-03-23T18:17:48.351Z,12.95
2023-03-23T18:20:15.889Z,11.98
2023-03-23T18:22:43.089Z,17.75
2023-03-23T18:25:10.384Z,16.67
2023-03-23T18:27:39.042Z,23.58
2023-03-23T18:30:07.471Z,49.03
2023-03-23T18:32:40.535Z,49.05
2023-03-23T18:35:10.854Z,46.70
2023-03-23T18:37:43.067Z,29.92
2023-03-23T18:40:11.404Z,23.75
2023-03-23T18:42:41.916Z,27.73
2023-03-23T18:45:09.888Z,26.95
2023-03-23T18:47:38.681Z,46.60
2023-03-23T18:50:08.322Z,50.75
2023-03-23T18:52:36.063Z,27.35
2023-03-23T18:55:04.040Z,21.63
2023-03-23T18:57:31.478Z,21.63
2023-03-23T18:59:58.749Z,38.05
2023-03-23T19:02:26.031Z,27.73
2023-03-23T19:04:53.685Z,21.65
2023-03-23T19:07:21.076Z,19.30
2023-03-23T19:09:48.397Z,24.45
2023-03-23T19:12:16.136Z,31.17
2023-03-23T19:14:43.857Z,23.42
2023-03-23T19:17:11.580Z,23.75
2023-03-23T19:19:39.118Z,18.95
2023-03-23T19:22:08.567Z,14.48
2023-03-23T19:24:36.564Z,18.13
2023-03-23T19:27:04.055Z,14.68
2023-03-23T19:29:31.619Z,15.50
2023-03-23T19:31:59.093Z,15.45
2023-03-23T19:34:28.179Z,20.30
2023-03-23T19:37:04.127Z,21.63
2023-03-23T19:39:34.250Z,25.13
2023-03-23T19:42:02.073Z,28.02
2023-03-23T19:44:29.550Z,30.95
2023-03-23T19:46:57.865Z,20.83
2023-03-23T19:49:25.675Z,24.92
2023-03-23T19:52:09.061Z,16.52
2023-03-23T19:54:39.473Z,21.55
2023-03-23T19:57:08.146Z,17.17
2023-03-23T19:59:36.453Z,35.85
2023-03-23T20:02:04.099Z,20.50
2023-03-23T20:04:31.765Z,22.00
2023-03-23T20:07:00.552Z,17.08
2023-03-23T20:09:28.560Z,17.05
2023-03-23T20:12:01.886Z,16.30
2023-03-23T20:14:29.435Z,18.98
2023-03-23T20:16:56.859Z,17.35
2023-03-23T20:19:24.311Z,25.50
2023-03-23T20:21:52.297Z,23.52
2023-03-23T20:24:20.152Z,21.35
2023-03-23T20:26:47.704Z,16.48
2023-03-23T20:29:15.118Z,15.38
2023-03-23T20:31:42.561Z,14.35
2023-03-23T20:34:14.409Z,16.75
2023-03-23T20:36:45.241Z,20.92
2023-03-23T20:39:23.355Z,26.00
2023-03-23T20:41:54.491Z,22.83
2023-03-23T20:44:23.371Z,26.13
2023-03-23T20:46:52.430Z,22.58
2023-03-23T20:49:20.914Z,21.08
2023-03-23T20:51:49.078Z,20.10
2023-03-23T20:54:18.731Z,17.48
2023-03-23T20:56:47.073Z,17.30
2023-03-23T20:59:15.961Z,23.73
2023-03-23T21:01:44.673Z,22.92
2023-03-23T21:04:18.777Z,23.05
2023-03-23T21:06:49.126Z,29.15
2023-03-23T21:09:17.674Z,56.85
2023-03-23T21:11:45.863Z,41.88
2023-03-23T21:14:13.811Z,23.35
2023-03-23T21:16:41.950Z,25.42
2023-03-23T21:19:09.746Z,20.80
2023-03-23T21:21:37.246Z,34.35
2023-03-23T21:24:04.701Z,28.00
2023-03-23T21:26:31.996Z,40.45
2023-03-23T21:29:00.471Z,49.78
2023-03-23T21:31:33.398Z,58.58
2023-03-23T21:34:01.411Z,39.40
2023-03-23T21:36:29.379Z,42.60
2023-03-23T21:38:57.372Z,39.80
2023-03-23T21:41:26.052Z,45.60
2023-03-23T21:43:54.239Z,55.53
2023-03-23T21:46:21.600Z,48.38
2023-03-23T21:48:51.693Z,53.92
2023-03-23T21:51:24.048Z,56.25
2023-03-23T21:53:54.404Z,49.25
2023-03-23T21:56:24.708Z,61.13
2023-03-23T21:58:52.939Z,35.35
2023-03-23T22:01:21.467Z,39.83
2023-03-23T22:04:07.747Z,34.97
2023-03-23T22:06:53.826Z,22.23
2023-03-23T22:09:21.073Z,25.55
2023-03-23T22:11:48.306Z,18.42
2023-03-23T22:14:15.562Z,14.23
2023-03-23T22:16:42.941Z,16.35
2023-03-23T22:19:10.352Z,12.02
2023-03-23T22:21:38.289Z,11.20
2023-03-23T22:24:06.000Z,13.65
2023-03-23T22:26:33.361Z,11.50
2023-03-23T22:29:01.825Z,15.23
2023-03-23T22:31:34.184Z,12.30
2023-03-23T22:34:03.715Z,11.25
2023-03-23T22:36:33.456Z,10.65
2023-03-23T22:39:01.650Z,14.38
2023-03-23T22:41:32.016Z,12.48
2023-03-23T22:43:59.665Z,12.77
2023-03-23T22:46:27.383Z,18.70
2023-03-23T22:48:54.932Z,11.73
2023-03-23T22:51:23.955Z,19.45
2023-03-23T22:53:51.333Z,10.50
2023-03-23T22:56:20.193Z,10.73
2023-03-23T22:58:47.861Z,15.15
2023-03-23T23:01:20.868Z,22.73
2023-03-23T23:03:48.771Z,21.42
2023-03-23T23:06:17.492Z,29.20
2023-03-23T23:08:46.806Z,30.27
2023-03-23T23:11:16.449Z,27.92
2023-03-23T23:13:44.971Z,32.63
2023-03-23T23:16:14.208Z,33.28
2023-03-23T23:18:41.954Z,28.98
2023-03-23T23:21:12.638Z,27.33
2023-03-23T23:23:40.600Z,38.33
2023-03-23T23:26:08.579Z,40.45
2023-03-23T23:28:36.548Z,58.47
2023-03-23T23:31:06.374Z,48.05
2023-03-23T23:33:33.666Z,43.03
2023-03-23T23:36:02.480Z,33.70
2023-03-23T23:38:29.783Z,29.85
2023-03-23T23:41:01.245Z,25.42
2023-03-23T23:43:28.501Z,22.60
2023-03-23T23:45:56.644Z,22.63
2023-03-23T23:48:24.352Z,28.27
2023-03-23T23:50:52.113Z,23.70
2023-03-23T23:53:23.028Z,21.65
2023-03-23T23:55:50.422Z,20.98
2023-03-23T23:58:18.344Z,28.85
